Clintonville, WI

9:03 PM CST on November 20, 2014 (GMT -0600)
Clintonville Municipal | Change Station
CLOSE
Current Station
Airport
Location: Clintonville,
Elevation: 823 ft
Nearby Weather Stations

Elev 823 ft 44.62 °N, 88.73 °W | Updated 8 minutes ago

Scattered Clouds
Scattered Clouds
9 °F
Feels Like 2 °F
N
4
Wind Variable Wind from West

Today
High -- | Low -- °F
--% Chance of Precip.
Yesterday
High -- | Low -- °F
Precip. -- in
6:58 AM 4:22 PM
Waning Crescent, 2% visible
Pressure 30.19 in
Visibility 10.0 miles
Clouds Scattered Clouds 4100 ft
Windchill 2 °F
Dew Point 1 °F
Humidity 73%
Rainfall 0.00 in
Snow Depth Not available.
UV 0 out of 12
Pollen .10 out of 12
Air Quality Not available.
Flu Activity Not available.
METAR KCLI 210255Z AUTO 26003KT 10SM SCT041 M13/M17 A3019 RMK AO2

More Conditions Fewer Conditions

Pressure 30.19 in
Visibility 10.0 miles
Clouds Scattered Clouds 4100 ft
Windchill 2 °F
Dew Point 1 °F
Humidity 73%
Rainfall 0.00 in
Snow Depth Not available.
UV 0 out of 12
Pollen .10 out of 12
Air Quality Not available.
Flu Activity Not available.
METAR KCLI 210255Z AUTO 26003KT 10SM SCT041 M13/M17 A3019 RMK AO2

More Conditions Fewer Conditions

10-Day Weather Forecast

Almanac

Astronomy

Nov. 20, 2014 Rise Set
Actual Time
Civil Twilight
Nautical Twilight
Astronomical Twilight
Moon
Length of Visible Light
Length of Day
Tomorrow will be .
, % of the Moon is Illuminated

Today's Extremes

State Highs State Lows

Community

WunderPhotos

Upload Photos

1,772,609 photos uploaded!

WunderBlogs® & News

Nearby

Air Quality

  Air Quality AQ Index Pollutant
Not available.

Snow Depth

Station Depth Elevation

Earthquake Activity

City Distance Mag. Time & Date
Minimum magnitude displayed is 2.5.

Coastal Water Temperatures

Place Temperature

Nearby Weather Stations